createdAt,value
2022-09-26T00:04:32.554Z,14.79
2022-09-26T00:09:35.088Z,14.77
2022-09-26T00:14:38.586Z,14.77
2022-09-26T00:19:40.454Z,14.77
2022-09-26T00:24:42.311Z,14.78
2022-09-26T00:29:44.347Z,14.76
2022-09-26T00:34:46.246Z,14.71
2022-09-26T00:39:48.041Z,14.68
2022-09-26T00:44:54.898Z,14.63
2022-09-26T00:50:05.118Z,14.62
2022-09-26T00:55:11.899Z,14.63
2022-09-26T01:00:15.798Z,14.63
2022-09-26T01:05:22.253Z,14.64
2022-09-26T01:10:24.671Z,14.67
2022-09-26T01:15:26.480Z,14.66
2022-09-26T01:20:39.081Z,14.63
2022-09-26T01:26:17.676Z,14.61
2022-09-26T01:31:42.065Z,14.62
2022-09-26T01:37:14.549Z,14.58
2022-09-26T01:42:37.728Z,14.55
2022-09-26T01:48:02.485Z,14.56
2022-09-26T01:53:27.701Z,14.51
2022-09-26T01:58:51.542Z,14.46
2022-09-26T02:03:59.011Z,14.39
2022-09-26T02:09:14.272Z,14.35
2022-09-26T02:14:28.970Z,14.29
2022-09-26T02:20:06.754Z,14.26
2022-09-26T02:25:09.588Z,14.19
2022-09-26T02:30:13.824Z,14.09
2022-09-26T02:35:35.105Z,14.07
2022-09-26T02:40:53.316Z,14.04
2022-09-26T02:46:15.621Z,13.97
2022-09-26T02:51:44.655Z,13.93
2022-09-26T02:57:22.559Z,13.90
2022-09-26T03:03:03.988Z,13.85
2022-09-26T03:08:12.579Z,13.76
2022-09-26T03:13:17.096Z,13.74
2022-09-26T03:18:30.095Z,13.73
2022-09-26T03:23:32.382Z,13.70
2022-09-26T03:28:39.376Z,13.66
2022-09-26T03:33:41.271Z,13.59
2022-09-26T03:38:44.271Z,13.51
2022-09-26T03:44:09.016Z,13.49
2022-09-26T03:49:29.524Z,13.47
2022-09-26T03:54:31.427Z,13.44
2022-09-26T03:59:33.553Z,13.43
2022-09-26T04:04:35.937Z,13.41
2022-09-26T04:09:37.904Z,13.39
2022-09-26T04:14:40.397Z,13.37
2022-09-26T04:19:42.401Z,13.37
2022-09-26T04:25:12.156Z,13.37
2022-09-26T04:31:20.931Z,13.39
2022-09-26T04:36:28.529Z,13.40
2022-09-26T04:41:31.587Z,13.40
2022-09-26T04:46:35.665Z,13.42
2022-09-26T04:51:37.585Z,13.44
2022-09-26T04:56:39.826Z,13.45
2022-09-26T05:01:43.726Z,13.46
2022-09-26T05:06:57.982Z,13.46
2022-09-26T05:12:04.398Z,13.46
2022-09-26T05:17:10.272Z,13.44
2022-09-26T05:22:13.013Z,13.44
2022-09-26T05:27:15.325Z,13.43
2022-09-26T05:32:20.846Z,13.43
2022-09-26T05:37:32.882Z,13.45
2022-09-26T05:42:35.587Z,13.45
2022-09-26T05:47:39.530Z,13.46
2022-09-26T05:52:41.727Z,13.43
2022-09-26T05:57:53.103Z,13.40
2022-09-26T06:02:58.593Z,13.38
2022-09-26T06:08:12.587Z,13.38
2022-09-26T06:13:21.792Z,13.38
2022-09-26T06:18:28.022Z,13.34
2022-09-26T06:23:31.928Z,13.30
2022-09-26T06:28:39.216Z,13.30
2022-09-26T06:33:42.338Z,13.30
2022-09-26T06:39:01.873Z,13.30
2022-09-26T06:51:02.218Z,13.34
2022-09-26T06:56:06.179Z,13.38
2022-09-26T07:01:08.592Z,13.39
2022-09-26T07:06:31.347Z,13.38
2022-09-26T07:11:56.267Z,13.41
2022-09-26T07:16:55.917Z,13.43
2022-09-26T07:22:09.953Z,13.46
2022-09-26T07:27:27.133Z,13.49
2022-09-26T07:32:31.496Z,13.60
2022-09-26T07:37:51.962Z,13.67
2022-09-26T07:43:18.589Z,13.76
2022-09-26T07:48:40.078Z,13.81
2022-09-26T07:54:00.685Z,13.83
2022-09-26T07:59:12.710Z,13.85
2022-09-26T08:04:43.492Z,13.85
2022-09-26T08:09:45.626Z,13.98
2022-09-26T08:15:26.104Z,14.11
2022-09-26T08:20:38.364Z,14.22
2022-09-26T08:25:41.313Z,14.35
2022-09-26T08:31:08.538Z,14.45
2022-09-26T08:36:13.946Z,14.50
2022-09-26T08:42:11.887Z,14.63
2022-09-26T08:47:52.137Z,14.71
2022-09-26T08:53:16.149Z,14.82
2022-09-26T08:58:44.820Z,14.92
2022-09-26T09:04:13.463Z,14.86
2022-09-26T09:09:17.174Z,14.77
2022-09-26T09:15:24.185Z,14.74
2022-09-26T09:20:57.503Z,14.82
2022-09-26T09:32:01.943Z,14.95
2022-09-26T09:37:53.985Z,15.07
2022-09-26T09:43:46.002Z,15.31
2022-09-26T09:48:48.381Z,15.36
2022-09-26T09:53:50.367Z,15.43
2022-09-26T09:59:03.769Z,15.42
2022-09-26T10:04:41.683Z,15.50
2022-09-26T10:09:44.241Z,15.59
2022-09-26T10:15:09.438Z,15.65
2022-09-26T10:20:40.130Z,15.68
2022-09-26T10:25:47.683Z,15.70
2022-09-26T10:30:50.787Z,15.74
2022-09-26T10:36:04.982Z,15.86
2022-09-26T10:41:23.149Z,15.90
2022-09-26T10:46:26.211Z,15.94
2022-09-26T10:52:31.890Z,16.03
2022-09-26T10:57:41.023Z,16.06
2022-09-26T11:02:47.218Z,16.06
2022-09-26T11:07:52.458Z,16.07
2022-09-26T11:13:24.086Z,16.02
2022-09-26T11:18:42.644Z,15.92
2022-09-26T11:24:03.663Z,15.89
2022-09-26T11:29:06.105Z,15.97
2022-09-26T11:34:22.270Z,15.87
2022-09-26T11:39:50.565Z,15.77
2022-09-26T11:45:31.020Z,15.89
2022-09-26T11:51:23.413Z,16.02
2022-09-26T11:56:47.393Z,16.02
2022-09-26T12:02:04.334Z,16.17
2022-09-26T12:07:25.368Z,16.36
2022-09-26T12:12:42.963Z,16.42
2022-09-26T12:17:47.945Z,16.48
2022-09-26T12:22:49.899Z,16.61
2022-09-26T12:28:16.901Z,16.74
2022-09-26T12:33:52.737Z,16.78
2022-09-26T12:39:31.560Z,16.69
2022-09-26T12:45:26.726Z,16.60
2022-09-26T12:50:42.863Z,16.52
2022-09-26T12:56:15.562Z,16.45
2022-09-26T13:01:37.572Z,16.39
2022-09-26T13:07:17.248Z,16.37
2022-09-26T13:12:30.542Z,16.49
2022-09-26T13:17:46.300Z,16.55
2022-09-26T13:22:48.226Z,16.53
2022-09-26T13:28:05.403Z,16.42
2022-09-26T13:33:18.599Z,16.38
2022-09-26T13:38:42.808Z,16.36
2022-09-26T13:43:56.666Z,16.37
2022-09-26T13:49:26.564Z,16.41
2022-09-26T13:54:44.341Z,16.43
2022-09-26T13:59:51.784Z,16.48
2022-09-26T14:05:02.831Z,16.52
2022-09-26T14:10:17.992Z,16.55
2022-09-26T14:15:27.164Z,16.56
2022-09-26T14:20:34.336Z,16.57
2022-09-26T14:25:44.967Z,16.60
2022-09-26T14:31:25.105Z,16.57
2022-09-26T14:36:33.493Z,16.55
2022-09-26T14:41:36.654Z,16.52
2022-09-26T14:46:41.545Z,16.49
2022-09-26T14:51:58.969Z,16.49
2022-09-26T14:57:08.207Z,16.45
2022-09-26T15:02:16.034Z,16.44
2022-09-26T15:07:22.506Z,16.45
2022-09-26T15:12:41.507Z,16.44
2022-09-26T15:17:50.606Z,16.42
2022-09-26T15:22:58.568Z,16.44
2022-09-26T15:28:01.909Z,16.43
2022-09-26T15:33:05.745Z,16.41
2022-09-26T15:38:12.940Z,16.38
2022-09-26T15:43:22.406Z,16.36
2022-09-26T15:48:28.550Z,16.37
2022-09-26T15:53:47.228Z,16.40
2022-09-26T15:58:55.792Z,16.35
2022-09-26T16:04:02.477Z,16.24
2022-09-26T16:09:16.317Z,16.11
2022-09-26T16:14:26.918Z,15.99
2022-09-26T16:19:32.714Z,15.91
2022-09-26T16:24:34.862Z,15.81
2022-09-26T16:29:36.903Z,15.74
2022-09-26T16:34:39.194Z,15.69
2022-09-26T16:39:42.355Z,15.61
2022-09-26T16:44:54.457Z,15.54
2022-09-26T16:51:01.570Z,15.46
2022-09-26T16:56:06.497Z,15.38
2022-09-26T17:01:55.590Z,15.32
2022-09-26T17:07:07.543Z,15.25
2022-09-26T17:12:21.602Z,15.20
2022-09-26T17:17:27.665Z,15.15
2022-09-26T17:22:29.633Z,15.09
2022-09-26T17:27:34.398Z,15.04
2022-09-26T17:32:38.264Z,15.00
2022-09-26T17:37:41.167Z,14.95
2022-09-26T17:42:42.972Z,14.88
2022-09-26T17:47:44.937Z,14.85
2022-09-26T17:52:47.498Z,14.82
2022-09-26T17:57:49.358Z,14.75
2022-09-26T18:03:00.510Z,14.72
2022-09-26T18:08:22.557Z,14.66
2022-09-26T18:13:28.008Z,14.63
2022-09-26T18:18:32.383Z,14.58
2022-09-26T18:24:02.404Z,14.55
2022-09-26T18:29:08.208Z,14.51
2022-09-26T18:34:16.450Z,14.48
2022-09-26T18:50:58.783Z,14.37
2022-09-26T18:56:19.167Z,14.31
2022-09-26T19:01:38.408Z,14.28
2022-09-26T19:06:42.987Z,14.26
2022-09-26T19:11:45.377Z,14.24
2022-09-26T19:16:49.485Z,14.22
2022-09-26T19:22:00.143Z,14.22
2022-09-26T19:27:25.204Z,14.20
2022-09-26T19:32:35.386Z,14.20
2022-09-26T19:37:37.236Z,14.17
2022-09-26T19:42:39.339Z,14.16
2022-09-26T19:47:47.686Z,14.15
2022-09-26T19:52:52.054Z,14.15
2022-09-26T19:57:56.597Z,14.14
2022-09-26T20:02:58.775Z,14.13
2022-09-26T20:08:01.067Z,14.11
2022-09-26T20:13:02.913Z,14.08
2022-09-26T20:29:28.903Z,13.99
2022-09-26T20:34:30.709Z,13.98
2022-09-26T20:39:32.632Z,13.95
2022-09-26T20:44:36.549Z,13.91
2022-09-26T20:49:46.166Z,13.88
2022-09-26T20:54:48.603Z,13.83
2022-09-26T20:59:51.654Z,13.79
2022-09-26T21:04:54.528Z,13.80
2022-09-26T21:09:59.533Z,13.78
2022-09-26T21:15:03.348Z,13.81
2022-09-26T21:20:05.595Z,13.85
2022-09-26T21:25:29.091Z,13.91
2022-09-26T21:30:31.064Z,13.94
2022-09-26T21:35:32.964Z,13.96
2022-09-26T21:40:47.079Z,13.96
2022-09-26T21:45:49.077Z,14.00
2022-09-26T21:50:58.196Z,14.02
2022-09-26T21:56:07.749Z,14.05
2022-09-26T22:01:09.862Z,14.08
2022-09-26T22:06:11.902Z,14.09
2022-09-26T22:11:14.386Z,14.11
2022-09-26T22:16:16.698Z,14.12
2022-09-26T22:21:19.222Z,14.11
2022-09-26T22:26:21.347Z,14.12
2022-09-26T22:31:23.394Z,14.10
2022-09-26T22:36:26.526Z,14.10
2022-09-26T22:41:28.574Z,14.09
2022-09-26T22:46:33.830Z,14.10
2022-09-26T22:51:35.923Z,14.08
2022-09-26T22:56:38.549Z,14.07
2022-09-26T23:01:40.512Z,14.09
2022-09-26T23:06:42.527Z,14.09
2022-09-26T23:11:44.404Z,14.09
2022-09-26T23:16:46.248Z,14.09
2022-09-26T23:21:48.161Z,14.08
2022-09-26T23:26:50.424Z,14.09
2022-09-26T23:32:16.413Z,14.09
2022-09-26T23:37:18.262Z,14.09
2022-09-26T23:42:20.535Z,14.10
2022-09-26T23:47:22.345Z,14.12
2022-09-26T23:52:24.203Z,14.11
2022-09-26T23:57:26.121Z,14.09
